Time;durP1;ratioP1;P1;durP2;ratioP2;P2;SDS_P1;SDS_P2;PMS_P1;PMS_P2;Temp;Humidity;BMP_temperature;BMP_pressure;BME280_temperature;BME280_humidity;BME280_pressure;Samples;Min_cycle;Max_cycle;Signal;HPM_P1;HPM_P2
2021/05/14 00:01:33;;;;;;;7.37;3.63;;;;;;;11.82;52.50;98508.17;153978;1101;103136;-75
2021/05/14 00:04:36;;;;;;;4.87;3.53;;;;;;;11.81;52.03;98507.36;153977;1101;103165;-75
2021/05/14 00:07:39;;;;;;;5.47;3.80;;;;;;;11.81;52.20;98501.20;153985;1101;103173;-74
2021/05/14 00:10:42;;;;;;;5.65;4.10;;;;;;;11.79;52.82;98499.54;153980;1094;103212;-71
2021/05/14 00:13:45;;;;;;;6.50;4.10;;;;;;;11.72;52.78;98498.73;153988;1096;103221;-72
2021/05/14 00:16:47;;;;;;;5.37;4.03;;;;;;;11.69;52.19;98498.31;153953;1096;103160;-73
2021/05/14 00:19:50;;;;;;;6.30;4.23;;;;;;;11.65;53.09;98492.55;153932;1094;103125;-71
2021/05/14 00:22:53;;;;;;;4.85;3.70;;;;;;;11.63;53.17;98493.79;154019;1101;103192;-71
2021/05/14 00:25:56;;;;;;;7.53;3.50;;;;;;;11.63;52.96;98488.45;154083;1101;103582;-73
2021/05/14 00:28:59;;;;;;;6.10;3.60;;;;;;;11.62;52.71;98487.60;154017;1101;103118;-74
2021/05/14 00:32:02;;;;;;;6.10;3.60;;;;;;;11.59;53.24;98488.02;154022;1101;103505;-73
2021/05/14 00:35:07;;;;;;;5.50;3.50;;;;;;;11.55;53.21;98484.12;154083;1101;103135;-75
2021/05/14 00:38:10;;;;;;;5.15;4.15;;;;;;;11.49;53.03;98490.25;154033;1096;103220;-71
2021/05/14 00:41:13;;;;;;;5.00;3.40;;;;;;;11.41;53.50;98493.92;153931;1095;103260;-71
2021/05/14 00:44:30;;;;;;;5.83;3.40;;;;;;;11.37;53.09;98488.19;154024;1096;103102;-75
2021/05/14 00:47:33;;;;;;;6.13;3.63;;;;;;;11.35;53.54;98484.06;153976;1096;103125;-72
2021/05/14 00:50:36;;;;;;;4.33;3.53;;;;;;;11.34;53.41;98487.77;153913;1101;103206;-70
2021/05/14 00:53:39;;;;;;;4.87;3.63;;;;;;;11.32;53.49;98493.30;153996;1096;103196;-73
2021/05/14 00:56:43;;;;;;;6.30;3.40;;;;;;;11.27;53.64;98486.92;153992;1096;103275;-72
2021/05/14 00:59:48;;;;;;;4.97;3.60;;;;;;;11.17;53.66;98485.45;154059;1101;103123;-74
2021/05/14 01:02:52;;;;;;;5.17;3.37;;;;;;;11.16;53.79;98485.64;153968;1101;103547;-73
2021/05/14 01:05:54;;;;;;;4.47;3.30;;;;;;;11.14;53.74;98491.20;154014;1095;103127;-72
2021/05/14 01:08:59;;;;;;;5.60;3.20;;;;;;;11.05;53.58;98494.22;153972;1095;103240;-72
2021/05/14 01:12:03;;;;;;;5.57;4.30;;;;;;;10.90;53.97;98495.20;154034;1101;103193;-73
2021/05/14 01:15:09;;;;;;;6.00;4.25;;;;;;;10.79;54.40;98491.23;153997;1101;103189;-75
2021/05/14 01:18:12;;;;;;;5.47;3.60;;;;;;;10.78;54.18;98494.94;153946;1101;103130;-71
2021/05/14 01:21:15;;;;;;;4.70;3.63;;;;;;;10.83;54.39;98489.00;153962;1101;103125;-71
2021/05/14 01:24:18;;;;;;;6.05;3.80;;;;;;;10.84;54.32;98484.51;154005;1096;103178;-72
2021/05/14 01:27:21;;;;;;;4.87;3.70;;;;;;;10.85;54.38;98488.81;153976;1101;103251;-71
2021/05/14 01:30:24;;;;;;;4.83;3.73;;;;;;;10.87;54.73;98481.42;154059;1101;103218;-71
2021/05/14 01:33:27;;;;;;;5.67;3.63;;;;;;;10.81;54.58;98483.86;153980;1101;103128;-71
2021/05/14 01:36:30;;;;;;;4.53;3.73;;;;;;;10.77;54.41;98482.61;153899;1101;103149;-72
2021/05/14 01:39:34;;;;;;;5.50;3.90;;;;;;;10.78;54.78;98481.60;153980;1096;103118;-72
2021/05/14 01:42:43;;;;;;;7.23;3.90;;;;;;;10.79;54.30;98474.41;153957;1096;103177;-75
2021/05/14 01:45:46;;;;;;;4.83;4.00;;;;;;;10.80;54.60;98479.56;154015;1101;103931;-73
2021/05/14 01:48:50;;;;;;;8.33;4.27;;;;;;;10.79;54.80;98477.08;153969;1101;103215;-72
2021/05/14 01:51:53;;;;;;;5.27;3.90;;;;;;;10.73;54.69;98481.36;154005;1101;103211;-71
2021/05/14 01:54:56;;;;;;;8.65;4.90;;;;;;;10.73;55.15;98486.70;154005;1095;103237;-69
2021/05/14 01:57:59;;;;;;;6.55;4.60;;;;;;;10.67;55.22;98494.68;153878;1096;103272;-68
2021/05/14 02:01:01;;;;;;;7.70;4.50;;;;;;;10.65;55.35;98486.05;153878;1101;103137;-73
2021/05/14 02:04:05;;;;;;;5.80;4.03;;;;;;;10.70;55.23;98499.60;153830;1101;103212;-70
2021/05/14 02:07:08;;;;;;;8.33;4.40;;;;;;;10.72;54.96;98492.22;153857;1101;103101;-71
2021/05/14 02:10:12;;;;;;;7.03;4.17;;;;;;;10.73;55.20;98493.89;153874;1101;103126;-74
2021/05/14 02:13:15;;;;;;;6.10;4.63;;;;;;;10.76;55.12;98498.84;154004;1096;103368;-71
2021/05/14 02:16:19;;;;;;;6.00;3.90;;;;;;;10.76;55.27;98499.66;153959;1101;103128;-76
2021/05/14 02:19:22;;;;;;;5.93;4.15;;;;;;;10.76;55.46;98493.50;153961;1101;103186;-71
2021/05/14 02:22:26;;;;;;;5.83;4.50;;;;;;;10.74;55.19;98500.84;153895;1096;103195;-71
2021/05/14 02:25:29;;;;;;;6.60;4.70;;;;;;;10.72;55.05;98498.41;153980;1096;103116;-74
2021/05/14 02:28:32;;;;;;;5.83;4.43;;;;;;;10.73;55.23;98504.55;153941;1096;103244;-76
2021/05/14 02:31:35;;;;;;;5.08;4.33;;;;;;;10.69;55.30;98512.13;154038;1101;103138;-74
2021/05/14 02:34:38;;;;;;;6.73;4.47;;;;;;;10.71;55.23;98512.75;153999;1096;103217;-73
2021/05/14 02:37:41;;;;;;;6.60;4.90;;;;;;;10.69;55.53;98514.79;153954;1101;103125;-73
2021/05/14 02:40:44;;;;;;;8.37;5.47;;;;;;;10.63;55.54;98509.44;153951;1101;103145;-72
2021/05/14 02:43:47;;;;;;;7.17;4.70;;;;;;;10.57;55.41;98508.38;153933;1094;103206;-71
2021/05/14 02:46:51;;;;;;;6.13;4.93;;;;;;;10.56;55.75;98512.86;154004;1101;103184;-75
2021/05/14 02:49:54;;;;;;;6.37;4.70;;;;;;;10.57;55.31;98517.19;153959;1101;103197;-73
2021/05/14 02:52:57;;;;;;;6.73;4.67;;;;;;;10.61;55.68;98514.95;153957;1101;103716;-72
2021/05/14 02:56:00;;;;;;;7.00;4.83;;;;;;;10.59;55.38;98509.00;154004;1101;103159;-72
2021/05/14 02:59:04;;;;;;;6.37;4.37;;;;;;;10.56;55.70;98510.19;153968;1101;103209;-72
2021/05/14 03:02:07;;;;;;;5.93;4.50;;;;;;;10.58;55.88;98510.82;154039;1101;103217;-77
2021/05/14 03:05:12;;;;;;;5.13;4.17;;;;;;;10.63;55.93;98509.44;154004;1101;103162;-73
2021/05/14 03:08:15;;;;;;;5.60;4.30;;;;;;;10.66;55.45;98512.50;153960;1096;103285;-71
2021/05/14 03:11:18;;;;;;;7.17;4.60;;;;;;;10.68;55.30;98515.83;153985;1096;103110;-71
2021/05/14 03:14:21;;;;;;;6.77;4.73;;;;;;;10.65;55.89;98512.73;153963;1101;103265;-72
2021/05/14 03:17:24;;;;;;;7.43;4.50;;;;;;;10.67;55.30;98524.84;153944;1101;103116;-71
2021/05/14 03:20:27;;;;;;;5.15;3.90;;;;;;;10.73;55.83;98528.56;153949;1101;103191;-76
2021/05/14 03:23:30;;;;;;;5.67;4.17;;;;;;;10.73;55.97;98533.90;154043;1101;103217;-76
2021/05/14 03:26:33;;;;;;;6.47;4.10;;;;;;;10.78;56.21;98534.96;154011;1101;103128;-74
2021/05/14 03:29:36;;;;;;;5.90;4.10;;;;;;;10.81;56.33;98528.40;154000;1096;103259;-75
2021/05/14 03:32:39;;;;;;;5.03;4.30;;;;;;;10.82;56.36;98538.06;154074;1101;103250;-74
2021/05/14 03:35:42;;;;;;;5.57;4.57;;;;;;;10.79;55.86;98536.59;154060;1101;103766;-74
2021/05/14 03:38:45;;;;;;;5.73;4.37;;;;;;;10.82;56.46;98532.73;154009;1101;103137;-75
2021/05/14 03:41:49;;;;;;;5.85;4.20;;;;;;;10.96;56.19;98537.09;153994;1095;103150;-74
2021/05/14 03:44:52;;;;;;;6.00;4.47;;;;;;;11.10;56.06;98547.84;154004;1101;103173;-72
2021/05/14 03:47:56;;;;;;;7.87;4.00;;;;;;;11.30;56.68;98546.08;154151;1096;103217;-72
2021/05/14 03:50:59;;;;;;;7.57;4.30;;;;;;;11.46;56.63;98549.42;153981;1101;103128;-72
2021/05/14 03:54:03;;;;;;;6.93;4.33;;;;;;;11.59;56.69;98544.13;153978;1095;103218;-73
2021/05/14 03:57:07;;;;;;;7.00;4.53;;;;;;;11.68;55.87;98542.08;154238;1097;103179;-72
2021/05/14 04:00:12;;;;;;;6.43;4.87;;;;;;;11.76;56.45;98550.73;154038;1093;103307;-71
2021/05/14 04:03:16;;;;;;;5.40;4.30;;;;;;;11.88;56.44;98550.14;154029;1093;103136;-73
2021/05/14 04:06:19;;;;;;;5.33;4.13;;;;;;;12.10;56.85;98554.29;154025;1093;103106;-70
2021/05/14 04:09:27;;;;;;;8.67;5.00;;;;;;;12.35;56.74;98559.03;153806;1101;103227;-70
2021/05/14 04:15:53;;;;;;;8.53;5.10;;;;;;;12.96;56.90;98550.70;153832;1101;103220;-68
2021/05/14 04:18:55;;;;;;;10.23;6.30;;;;;;;13.10;56.11;98558.70;153806;1101;103256;-75
2021/05/14 04:22:00;;;;;;;7.90;5.83;;;;;;;13.02;56.56;98554.40;153866;1101;103099;-68
2021/05/14 04:25:04;;;;;;;9.20;6.40;;;;;;;12.99;57.21;98567.38;153826;1101;103105;-73
2021/05/14 04:28:07;;;;;;;9.73;6.97;;;;;;;13.15;56.80;98561.58;153965;1093;103129;-73
2021/05/14 04:31:10;;;;;;;11.43;6.87;;;;;;;13.52;56.95;98562.67;153791;1094;103243;-73
2021/05/14 04:34:14;;;;;;;9.57;6.93;;;;;;;13.90;56.62;98563.72;153800;1101;103217;-69
2021/05/14 04:37:17;;;;;;;9.47;6.27;;;;;;;14.16;56.32;98556.52;153901;1101;103215;-69
2021/05/14 04:40:20;;;;;;;10.60;6.67;;;;;;;14.27;55.96;98555.81;153787;1093;103128;-70
2021/05/14 04:43:23;;;;;;;8.03;6.70;;;;;;;14.35;56.10;98560.89;153865;1101;103591;-70
2021/05/14 04:46:26;;;;;;;9.33;6.50;;;;;;;14.43;56.02;98576.71;153782;1101;103182;-69
2021/05/14 04:49:29;;;;;;;8.00;6.40;;;;;;;14.47;55.91;98567.21;153837;1093;103223;-69
2021/05/14 04:52:32;;;;;;;7.75;6.20;;;;;;;14.57;55.80;98576.63;153789;1101;103126;-70
2021/05/14 04:55:36;;;;;;;10.73;6.90;;;;;;;14.71;55.79;98570.93;153858;1101;103132;-70
2021/05/14 04:58:39;;;;;;;8.67;6.70;;;;;;;14.87;55.52;98558.78;153906;1093;103144;-70
2021/05/14 05:01:42;;;;;;;9.63;6.50;;;;;;;14.98;55.80;98562.61;153956;1094;103267;-69
2021/05/14 05:04:45;;;;;;;9.27;7.10;;;;;;;15.05;55.36;98567.89;153894;1093;103149;-70
2021/05/14 05:07:48;;;;;;;8.27;6.53;;;;;;;15.12;55.45;98560.59;153874;1093;103115;-69
2021/05/14 05:10:52;;;;;;;7.13;6.23;;;;;;;15.28;55.41;98564.53;153930;1093;103125;-73
2021/05/14 05:13:55;;;;;;;8.27;6.90;;;;;;;15.38;55.18;98564.03;153849;1101;103107;-69
2021/05/14 05:16:57;;;;;;;8.97;6.53;;;;;;;15.47;55.52;98559.95;153877;1093;103189;-71
2021/05/14 05:20:00;;;;;;;6.63;5.97;;;;;;;15.59;55.11;98563.54;153880;1093;103217;-72
2021/05/14 05:23:03;;;;;;;8.75;6.20;;;;;;;15.71;54.93;98564.39;153811;1093;103220;-70
2021/05/14 05:26:06;;;;;;;7.83;6.23;;;;;;;15.89;54.82;98568.92;153895;1101;103553;-70
2021/05/14 05:29:09;;;;;;;7.47;6.07;;;;;;;16.03;54.73;98566.04;154127;1101;103210;-71
2021/05/14 05:32:11;;;;;;;6.60;5.90;;;;;;;16.15;54.55;98568.75;153769;1093;103363;-72
2021/05/14 05:35:15;;;;;;;9.10;6.13;;;;;;;16.26;54.90;98581.42;153820;1101;103557;-73
2021/05/14 05:38:18;;;;;;;8.43;6.40;;;;;;;16.25;54.37;98558.27;153920;1101;103132;-71
2021/05/14 05:41:21;;;;;;;9.27;5.90;;;;;;;16.43;54.67;98579.69;154020;1101;103096;-70
2021/05/14 05:44:24;;;;;;;7.88;6.08;;;;;;;16.54;54.45;98583.46;153993;1097;103133;-72
2021/05/14 05:47:29;;;;;;;11.53;6.87;;;;;;;16.55;53.46;98581.58;154260;1094;103606;-71
2021/05/14 05:50:32;;;;;;;19.27;7.03;;;;;;;16.26;53.65;98586.80;154313;1093;103240;-72
2021/05/14 05:53:35;;;;;;;9.25;6.10;;;;;;;16.16;54.21;98583.86;154098;1101;103221;-68
2021/05/14 05:56:38;;;;;;;10.10;6.50;;;;;;;16.26;53.90;98586.80;153818;1101;103141;-70
2021/05/14 05:59:41;;;;;;;10.67;6.90;;;;;;;16.28;54.16;98590.08;154055;1094;103242;-70
2021/05/14 06:02:44;;;;;;;10.95;7.75;;;;;;;16.23;53.71;98587.28;153883;1093;103197;-70
2021/05/14 06:05:47;;;;;;;11.93;7.33;;;;;;;16.20;54.23;98593.11;153935;1101;103128;-70
2021/05/14 06:08:50;;;;;;;8.83;7.13;;;;;;;16.19;54.05;98591.48;153822;1101;103192;-71
2021/05/14 06:11:53;;;;;;;10.47;7.40;;;;;;;16.17;54.15;98593.59;154007;1101;103139;-70
2021/05/14 06:14:56;;;;;;;13.23;7.63;;;;;;;16.20;54.11;98593.11;155656;1093;103160;-70
2021/05/14 06:17:59;;;;;;;8.90;7.17;;;;;;;16.33;54.12;98606.37;153938;1101;103251;-71
2021/05/14 06:21:02;;;;;;;8.77;7.20;;;;;;;16.49;53.98;98611.09;153835;1094;103553;-69
2021/05/14 06:24:07;;;;;;;10.17;7.97;;;;;;;16.47;53.37;98610.50;153896;1093;103117;-71
2021/05/14 06:27:10;;;;;;;12.77;8.63;;;;;;;16.38;53.60;98619.13;153866;1093;103236;-70
2021/05/14 06:30:18;;;;;;;10.70;8.33;;;;;;;16.34;53.47;98618.79;153797;1093;103141;-68
2021/05/14 06:33:21;;;;;;;15.17;8.60;;;;;;;16.20;54.12;98614.64;153897;1094;103385;-70
2021/05/14 06:36:24;;;;;;;13.27;8.97;;;;;;;16.37;53.86;98626.39;153841;1101;103233;-75
2021/05/14 06:39:27;;;;;;;11.28;9.55;;;;;;;16.35;53.61;98624.98;153968;1101;103166;-71
2021/05/14 06:42:30;;;;;;;14.70;9.53;;;;;;;16.22;53.92;98625.99;153944;1101;103285;-70
2021/05/14 06:45:33;;;;;;;12.37;9.60;;;;;;;16.25;54.17;98633.63;154082;1101;103516;-71
2021/05/14 06:48:37;;;;;;;12.83;9.43;;;;;;;16.34;54.14;98632.25;154000;1093;103563;-70
2021/05/14 06:51:40;;;;;;;10.87;9.47;;;;;;;16.26;54.21;98633.40;154306;1101;103128;-71
2021/05/14 06:54:43;;;;;;;11.50;9.65;;;;;;;16.21;54.43;98648.59;154209;1101;103148;-71
2021/05/14 06:57:46;;;;;;;16.55;10.30;;;;;;;16.22;54.47;98634.88;153791;1101;103184;-71
2021/05/14 07:00:50;;;;;;;12.60;9.80;;;;;;;16.28;55.16;98641.22;154047;1101;103282;-73
2021/05/14 07:03:54;;;;;;;11.98;9.18;;;;;;;16.33;54.38;98641.36;153922;1101;103212;-71
2021/05/14 07:06:56;;;;;;;13.00;10.20;;;;;;;16.48;54.24;98639.05;153902;1094;103138;-72
2021/05/14 07:09:59;;;;;;;12.10;9.53;;;;;;;16.70;54.39;98651.96;154021;1101;103104;-70
2021/05/14 07:13:02;;;;;;;13.90;10.33;;;;;;;16.83;54.56;98649.08;154014;1101;103217;-71
2021/05/14 07:16:06;;;;;;;12.90;9.37;;;;;;;17.01;54.27;98655.41;153944;1101;103220;-71
2021/05/14 07:19:13;;;;;;;12.63;10.60;;;;;;;17.01;54.30;98653.56;154214;1101;103281;-70
2021/05/14 07:22:16;;;;;;;16.93;12.33;;;;;;;16.91;54.34;98664.08;154039;1093;103134;-71
2021/05/14 07:25:19;;;;;;;14.55;12.05;;;;;;;16.74;55.02;98663.91;154048;1101;103337;-70
2021/05/14 07:28:22;;;;;;;20.78;13.78;;;;;;;16.81;55.39;98664.63;154221;1101;103171;-71
2021/05/14 07:31:25;;;;;;;22.00;16.73;;;;;;;17.08;55.33;98666.91;154100;1101;103136;-71
2021/05/14 07:34:28;;;;;;;19.20;16.70;;;;;;;17.14;55.24;98668.66;154000;1101;103200;-72
2021/05/14 07:37:30;;;;;;;23.45;17.95;;;;;;;17.31;55.24;98673.34;153954;1093;103217;-71
2021/05/14 07:40:34;;;;;;;25.23;19.00;;;;;;;17.42;55.23;98669.82;153990;1101;103139;-71
2021/05/14 07:43:37;;;;;;;23.57;18.50;;;;;;;17.46;55.67;98681.77;153984;1094;103127;-68
2021/05/14 07:46:40;;;;;;;23.33;18.73;;;;;;;17.57;55.37;98672.00;153886;1101;104688;-70
2021/05/14 07:49:43;;;;;;;25.60;18.87;;;;;;;17.62;55.51;98672.93;153845;1101;103174;-74
2021/05/14 07:52:46;;;;;;;23.23;18.97;;;;;;;17.81;55.28;98683.58;154079;1093;103224;-74
2021/05/14 07:55:49;;;;;;;24.97;19.23;;;;;;;18.00;55.15;98682.37;153991;1093;103223;-72
2021/05/14 07:58:52;;;;;;;24.40;18.63;;;;;;;18.14;55.04;98684.78;154058;1101;103137;-73
2021/05/14 08:01:54;;;;;;;28.10;19.73;;;;;;;18.09;54.69;98681.98;154123;1101;103214;-73
2021/05/14 08:04:57;;;;;;;28.03;20.93;;;;;;;17.98;54.81;98684.48;154120;1093;103208;-74
2021/05/14 08:08:05;;;;;;;27.47;21.80;;;;;;;17.96;55.13;98683.91;154083;1101;103200;-74
2021/05/14 08:11:08;;;;;;;31.67;23.10;;;;;;;17.91;55.16;98689.20;153990;1101;103474;-75
2021/05/14 08:14:12;;;;;;;30.17;23.23;;;;;;;17.81;56.18;98694.37;154090;1093;103107;-75
2021/05/14 08:17:15;;;;;;;31.10;24.00;;;;;;;17.74;55.64;98691.78;154121;1094;103230;-74
2021/05/14 08:20:18;;;;;;;32.93;24.57;;;;;;;17.73;56.02;98697.44;154022;1093;103225;-75
2021/05/14 08:23:21;;;;;;;32.03;25.13;;;;;;;17.89;55.85;98690.50;154006;1101;103138;-76
2021/05/14 09:16:11;;;;;;;29.57;22.37;;;;;;;18.94;54.82;98701.89;154207;1090;103179;-78
2021/05/14 09:19:31;;;;;;;31.37;22.67;;;;;;;19.08;55.10;98703.19;153955;1101;103194;-78
2021/05/14 09:22:37;;;;;;;24.43;21.73;;;;;;;19.22;54.99;98709.06;153941;1096;103128;-78
2021/05/14 09:25:51;;;;;;;25.83;22.53;;;;;;;19.11;54.92;98713.52;154001;1101;103124;-77
2021/05/14 09:28:54;;;;;;;29.00;22.30;;;;;;;19.02;55.33;98718.50;154016;1101;103214;-77
2021/05/14 09:32:24;;;;;;;24.75;21.75;;;;;;;19.10;55.21;98719.16;154018;1101;103120;-78
2021/05/14 09:35:28;;;;;;;27.03;21.50;;;;;;;19.16;55.20;98716.28;153981;1101;103161;-77
2021/05/14 09:38:41;;;;;;;24.37;20.60;;;;;;;19.30;54.99;98724.86;153972;1101;103262;-78
2021/05/14 09:41:45;;;;;;;22.80;19.30;;;;;;;19.49;54.72;98720.00;154024;1101;103218;-78
2021/05/14 09:44:49;;;;;;;23.20;19.10;;;;;;;19.62;54.69;98729.66;154027;1101;103333;-78
2021/05/14 09:48:14;;;;;;;23.10;20.23;;;;;;;19.66;54.63;98729.98;153958;1101;103199;-78
2021/05/14 09:51:17;;;;;;;24.20;18.13;;;;;;;19.58;54.39;98729.34;153995;1101;103214;-78
2021/05/14 09:54:27;;;;;;;21.10;18.40;;;;;;;19.48;54.86;98734.61;153941;1095;103120;-77
2021/05/14 09:57:35;;;;;;;21.70;18.10;;;;;;;19.53;55.14;98726.55;154083;1097;103205;-78
2021/05/14 10:00:39;;;;;;;21.27;18.93;;;;;;;19.77;54.39;98737.20;153973;1101;103272;-81
2021/05/14 10:03:44;;;;;;;21.47;18.43;;;;;;;19.64;54.59;98737.53;154003;1101;103100;-78
2021/05/14 10:06:48;;;;;;;18.63;15.77;;;;;;;19.69;54.49;98734.88;154006;1101;103143;-76
2021/05/14 10:09:55;;;;;;;24.10;18.57;;;;;;;19.82;54.10;98726.42;153992;1101;103138;-77
2021/05/14 10:12:59;;;;;;;22.03;17.30;;;;;;;19.76;54.48;98735.55;154059;1101;103192;-76
2021/05/14 10:16:04;;;;;;;24.20;19.53;;;;;;;19.74;54.40;98733.09;154001;1101;103243;-76
2021/05/14 10:19:08;;;;;;;21.43;18.53;;;;;;;19.60;54.21;98732.61;154043;1101;103509;-75
2021/05/14 10:22:14;;;;;;;21.60;17.80;;;;;;;19.71;54.06;98743.59;153993;1101;103197;-72
2021/05/14 10:25:42;;;;;;;23.67;18.27;;;;;;;19.77;54.08;98742.63;153946;1101;103124;-72
2021/05/14 10:28:48;;;;;;;24.87;18.47;;;;;;;19.97;53.96;98742.86;153810;1101;103144;-71
2021/05/14 10:31:51;;;;;;;23.47;18.77;;;;;;;19.80;53.68;98742.10;153867;1093;103260;-71
2021/05/14 10:35:04;;;;;;;23.13;18.07;;;;;;;19.84;54.13;98734.30;153996;1101;103496;-71
2021/05/14 10:38:08;;;;;;;24.53;18.43;;;;;;;20.00;53.54;98746.97;153995;1093;103199;-71
2021/05/14 10:41:29;;;;;;;22.70;17.17;;;;;;;20.12;53.87;98738.72;154155;1101;103209;-71
2021/05/14 10:44:51;;;;;;;24.80;18.63;;;;;;;20.27;53.37;98738.09;153998;1101;103122;-72
2021/05/14 10:47:58;;;;;;;26.17;19.13;;;;;;;20.23;53.46;98732.36;154012;1101;103268;-71
2021/05/14 10:51:05;;;;;;;25.87;19.07;;;;;;;20.14;53.59;98737.39;153896;1101;103246;-72
2021/05/14 10:54:09;;;;;;;24.17;18.60;;;;;;;20.13;53.08;98743.05;153909;1101;103132;-71
2021/05/14 10:57:13;;;;;;;22.00;18.20;;;;;;;20.09;53.38;98744.63;153987;1096;103224;-72
2021/05/14 11:00:36;;;;;;;22.83;18.77;;;;;;;20.05;52.24;98754.33;153833;1101;103253;-72
2021/05/14 11:03:40;;;;;;;19.10;15.73;;;;;;;19.92;53.12;98745.53;154009;1096;103118;-71
2021/05/14 11:06:45;;;;;;;19.30;15.87;;;;;;;20.10;53.25;98744.38;154616;1101;103220;-73
2021/05/14 11:10:27;;;;;;;18.83;15.13;;;;;;;20.21;52.72;98737.21;154768;1096;103204;-73
2021/05/14 11:13:36;;;;;;;;;;;;;;;20.30;52.43;98746.50;154349;1093;103128;-71
2021/05/14 11:16:44;;;;;;;19.07;15.07;;;;;;;20.28;52.29;98747.83;154132;1101;103097;-72
2021/05/14 11:19:49;;;;;;;17.15;14.00;;;;;;;20.29;52.44;98741.36;154548;1101;103261;-71
2021/05/14 11:22:53;;;;;;;18.47;14.57;;;;;;;20.37;52.71;98749.84;154057;1096;103127;-70
2021/05/14 11:25:56;;;;;;;17.43;13.73;;;;;;;20.47;52.06;98745.61;153878;1096;103221;-71
2021/05/14 11:29:00;;;;;;;17.80;13.40;;;;;;;20.55;52.01;98753.27;153989;1095;103249;-72
2021/05/14 11:32:28;;;;;;;20.10;15.03;;;;;;;20.67;51.73;98751.28;153894;1101;103557;-71
2021/05/14 11:35:32;;;;;;;20.00;14.60;;;;;;;20.77;52.10;98748.66;153947;1101;103275;-71
2021/05/14 11:38:35;;;;;;;19.45;14.25;;;;;;;20.64;51.45;98762.62;154042;1101;103198;-73
2021/05/14 11:41:39;;;;;;;21.10;16.43;;;;;;;20.46;50.70;98774.59;154025;1101;103136;-73
2021/05/14 11:44:58;;;;;;;22.10;15.47;;;;;;;20.35;51.64;98759.30;153943;1101;103220;-71
2021/05/14 11:48:08;;;;;;;21.07;15.40;;;;;;;20.37;51.15;98755.25;153918;1101;103231;-74
2021/05/14 11:51:14;;;;;;;23.75;17.00;;;;;;;20.43;50.75;98760.73;153990;1096;103270;-72
2021/05/14 11:54:18;;;;;;;33.70;22.43;;;;;;;20.23;51.24;98770.27;154145;1101;103197;-73
2021/05/14 11:57:30;;;;;;;23.60;16.53;;;;;;;19.92;51.66;98778.01;154092;1093;103216;-74
2021/05/14 12:00:35;;;;;;;21.37;15.60;;;;;;;19.66;51.92;98779.50;153994;1101;103115;-72
2021/05/14 12:03:41;;;;;;;20.37;15.10;;;;;;;19.72;51.87;98783.13;154005;1096;103142;-73
2021/05/14 12:06:51;;;;;;;17.83;14.47;;;;;;;19.78;51.98;98787.55;153789;1101;103303;-72
2021/05/14 12:10:00;;;;;;;20.27;16.03;;;;;;;19.87;52.09;98791.47;153932;1101;103225;-70
2021/05/14 12:13:03;;;;;;;20.13;14.93;;;;;;;19.85;51.47;98795.50;153870;1101;103136;-71
2021/05/14 12:16:08;;;;;;;21.67;14.80;;;;;;;19.76;51.70;98781.56;154005;1096;103221;-71
2021/05/14 12:19:12;;;;;;;19.57;14.37;;;;;;;19.74;51.94;98792.63;153920;1096;103214;-72
2021/05/14 12:22:15;;;;;;;17.33;14.23;;;;;;;19.76;52.02;98795.91;153980;1096;103248;-72
2021/05/14 12:25:20;;;;;;;18.90;13.87;;;;;;;19.72;51.46;98796.66;153995;1096;103187;-72
2021/05/14 12:28:41;;;;;;;17.67;14.40;;;;;;;19.54;51.67;98803.14;154024;1095;103110;-71
2021/05/14 12:31:53;;;;;;;19.37;13.20;;;;;;;19.47;52.01;98806.00;154016;1101;103633;-72
2021/05/14 12:34:57;;;;;;;15.43;11.97;;;;;;;19.57;51.81;98830.53;153888;1101;103128;-71
2021/05/14 12:38:00;;;;;;;14.83;12.40;;;;;;;19.41;51.58;98823.22;153919;1096;103265;-71
2021/05/14 12:41:04;;;;;;;14.77;12.33;;;;;;;19.40;51.82;98830.52;153888;1096;103127;-70
2021/05/14 12:44:19;;;;;;;15.83;12.53;;;;;;;19.39;51.58;98826.17;153872;1101;103113;-70
2021/05/14 12:47:27;;;;;;;18.80;13.23;;;;;;;19.28;51.89;98826.25;154002;1101;103243;-72
2021/05/14 12:50:30;;;;;;;18.80;14.33;;;;;;;19.19;52.12;98823.95;153885;1096;103235;-71
2021/05/14 12:53:34;;;;;;;18.47;13.00;;;;;;;19.20;52.07;98825.58;153992;1101;103328;-71
2021/05/14 12:56:40;;;;;;;15.07;13.47;;;;;;;19.26;52.16;98834.60;154026;1101;103218;-73
2021/05/14 12:59:50;;;;;;;14.90;12.40;;;;;;;19.32;52.17;98832.80;153873;1096;103258;-70
2021/05/14 13:02:56;;;;;;;18.50;14.33;;;;;;;19.32;52.65;98832.80;153855;1101;103043;-76
2021/05/14 13:05:59;;;;;;;16.57;13.33;;;;;;;19.18;52.27;98835.83;153992;1101;103137;-69
2021/05/14 13:09:09;;;;;;;18.53;13.67;;;;;;;19.18;52.35;98835.83;153836;1101;103252;-69
2021/05/14 13:12:12;;;;;;;14.73;11.90;;;;;;;19.20;52.43;98836.39;153885;1101;103216;-70
2021/05/14 13:15:16;;;;;;;14.00;12.37;;;;;;;19.27;52.45;98840.85;153767;1101;103470;-66
2021/05/14 13:18:27;;;;;;;19.23;13.13;;;;;;;19.14;52.58;98842.78;153752;1096;103129;-76
2021/05/14 13:21:31;;;;;;;12.97;11.37;;;;;;;19.19;52.77;98844.78;154006;1101;103166;-67
2021/05/14 13:24:35;;;;;;;15.80;12.03;;;;;;;19.19;52.73;98852.89;153929;1101;103655;-69
2021/05/14 13:27:40;;;;;;;17.80;11.90;;;;;;;19.21;52.10;98842.65;153890;1101;103217;-67
2021/05/14 13:30:44;;;;;;;13.50;11.53;;;;;;;19.33;52.17;98846.09;153862;1101;103135;-68
2021/05/14 13:33:48;;;;;;;14.75;12.05;;;;;;;19.44;51.98;98849.80;153931;1101;103136;-68
2021/05/14 13:36:51;;;;;;;14.03;10.20;;;;;;;19.45;52.03;98856.02;153856;1101;103139;-68
2021/05/14 13:39:55;;;;;;;14.70;11.97;;;;;;;19.53;51.89;98851.00;153899;1101;103285;-68
2021/05/14 13:42:59;;;;;;;17.93;13.00;;;;;;;19.42;51.66;98855.44;153929;1096;103573;-67
2021/05/14 13:46:03;;;;;;;13.67;11.27;;;;;;;19.42;52.33;98866.27;153863;1101;103218;-67
2021/05/14 13:49:06;;;;;;;14.77;11.23;;;;;;;19.49;51.75;98871.50;153873;1096;103262;-73
2021/05/14 13:52:11;;;;;;;17.45;12.60;;;;;;;19.47;51.66;98873.63;153821;1101;103147;-67
2021/05/14 13:55:14;;;;;;;14.15;11.65;;;;;;;19.44;52.13;98874.14;153846;1101;103265;-69
2021/05/14 13:58:18;;;;;;;14.13;11.33;;;;;;;19.36;51.60;98877.22;153856;1101;103208;-67
2021/05/14 14:01:21;;;;;;;14.47;12.17;;;;;;;19.17;52.49;98874.76;153879;1096;103198;-67
2021/05/14 14:04:25;;;;;;;12.20;10.85;;;;;;;19.19;52.32;98883.45;155293;1101;103099;-69
2021/05/14 14:07:29;;;;;;;14.40;11.27;;;;;;;19.12;52.72;98880.06;153986;1101;103096;-68
2021/05/14 14:10:32;;;;;;;13.80;11.10;;;;;;;19.23;52.40;98884.59;153864;1093;103256;-71
2021/05/14 14:13:36;;;;;;;15.03;11.03;;;;;;;19.30;52.53;98883.61;153804;1101;103241;-69
2021/05/14 14:16:39;;;;;;;11.83;10.00;;;;;;;19.33;51.92;98888.55;153817;1101;103218;-70
2021/05/14 14:19:42;;;;;;;11.63;10.43;;;;;;;19.28;52.20;98877.63;153843;1101;103095;-69
2021/05/14 14:22:46;;;;;;;13.00;10.23;;;;;;;19.36;52.18;98888.05;153837;1101;103253;-73
2021/05/14 14:25:50;;;;;;;12.80;9.70;;;;;;;19.33;52.19;98891.25;153851;1093;103279;-70
2021/05/14 14:28:53;;;;;;;11.63;10.40;;;;;;;19.23;52.43;98897.30;153897;1093;103558;-67
2021/05/14 14:31:57;;;;;;;13.40;10.27;;;;;;;19.16;52.34;98881.22;153896;1101;103297;-71
2021/05/14 14:35:00;;;;;;;11.17;9.40;;;;;;;19.06;52.43;98899.16;153680;1101;103193;-69
2021/05/14 14:38:04;;;;;;;11.90;9.85;;;;;;;18.95;52.40;98900.83;153922;1093;103195;-69
2021/05/14 14:41:08;;;;;;;13.53;9.87;;;;;;;18.83;52.40;98907.09;153899;1093;103286;-70
2021/05/14 14:44:11;;;;;;;12.30;9.97;;;;;;;18.72;52.88;98913.31;154057;1093;103191;-67
2021/05/14 14:47:15;;;;;;;10.83;9.17;;;;;;;18.67;53.29;98905.13;153839;1101;103180;-68
2021/05/14 14:50:19;;;;;;;11.40;10.20;;;;;;;18.68;52.95;98904.05;153897;1093;103167;-67
2021/05/14 14:53:22;;;;;;;12.77;10.53;;;;;;;18.67;53.10;98917.80;155332;1101;103097;-67